createdAt,value
2022-08-16T00:02:33.545Z,76.18
2022-08-16T00:05:01.953Z,76.96
2022-08-16T00:07:31.688Z,76.59
2022-08-16T00:10:01.751Z,76.57
2022-08-16T00:12:31.250Z,76.51
2022-08-16T00:15:02.338Z,77.07
2022-08-16T00:17:30.196Z,77.06
2022-08-16T00:20:21.080Z,77.50
2022-08-16T00:22:49.823Z,78.25
2022-08-16T00:26:13.538Z,78.73
2022-08-16T00:28:12.425Z,80.03
2022-08-16T00:30:40.541Z,80.52
2022-08-16T00:33:10.015Z,81.12
2022-08-16T00:35:39.577Z,81.63
2022-08-16T00:38:41.514Z,81.97
2022-08-16T00:40:59.371Z,82.44
2022-08-16T00:43:42.901Z,82.74
2022-08-16T00:46:33.042Z,82.18
2022-08-16T00:49:05.498Z,81.98
2022-08-16T00:51:33.612Z,81.76
2022-08-16T00:54:01.872Z,81.36
2022-08-16T00:56:56.981Z,80.99
2022-08-16T00:59:27.438Z,81.06
2022-08-16T01:01:56.429Z,80.45
2022-08-16T01:04:30.841Z,79.95
2022-08-16T01:07:02.434Z,79.82
2022-08-16T01:09:33.483Z,80.01
2022-08-16T01:12:08.381Z,80.07
2022-08-16T01:14:43.505Z,80.39
2022-08-16T01:17:13.878Z,80.68
2022-08-16T01:19:45.233Z,81.18
2022-08-16T01:22:48.192Z,81.81
2022-08-16T01:25:13.856Z,83.13
2022-08-16T01:27:47.076Z,84.14
2022-08-16T01:30:20.381Z,84.39
2022-08-16T01:33:02.137Z,84.81
2022-08-16T01:35:42.258Z,85.25
2022-08-16T01:38:20.079Z,85.32
2022-08-16T01:40:50.631Z,85.36
2022-08-16T01:43:20.938Z,85.55
2022-08-16T01:45:57.919Z,86.09
2022-08-16T01:48:30.517Z,86.67
2022-08-16T01:51:08.811Z,86.89
2022-08-16T01:53:44.338Z,87.31
2022-08-16T01:56:23.446Z,88.36
2022-08-16T01:58:53.220Z,88.21
2022-08-16T02:01:21.355Z,87.99
2022-08-16T02:03:50.304Z,88.39
2022-08-16T02:06:34.445Z,88.39
2022-08-16T02:09:11.733Z,88.18
2022-08-16T02:14:18.673Z,88.99
2022-08-16T02:16:49.760Z,89.12
2022-08-16T02:19:19.892Z,89.41
2022-08-16T02:22:08.790Z,89.43
2022-08-16T02:24:46.019Z,89.53
2022-08-16T02:27:16.090Z,89.75
2022-08-16T02:29:45.116Z,89.45
2022-08-16T02:32:51.180Z,89.22
2022-08-16T02:35:05.611Z,89.79
2022-08-16T02:37:51.646Z,89.94
2022-08-16T02:40:23.048Z,89.52
2022-08-16T02:42:53.895Z,90.04
2022-08-16T02:45:25.018Z,89.60
2022-08-16T02:48:01.560Z,89.55
2022-08-16T02:50:54.492Z,89.23
2022-08-16T02:53:32.936Z,89.13
2022-08-16T02:56:00.858Z,88.80
2022-08-16T02:58:32.568Z,88.74
2022-08-16T03:01:01.434Z,89.10
2022-08-16T03:04:30.199Z,89.52
2022-08-16T03:06:39.634Z,89.20
2022-08-16T03:09:13.756Z,89.00
2022-08-16T03:11:43.393Z,88.82
2022-08-16T03:14:13.651Z,88.79
2022-08-16T03:16:59.935Z,88.41
2022-08-16T03:19:46.940Z,88.50
2022-08-16T03:22:19.156Z,88.38
2022-08-16T03:24:58.677Z,88.64
2022-08-16T03:27:30.722Z,88.89
2022-08-16T03:30:17.517Z,88.99
2022-08-16T03:32:47.162Z,89.53
2022-08-16T03:35:17.597Z,89.99
2022-08-16T03:38:01.911Z,90.28
2022-08-16T03:40:33.228Z,89.92
2022-08-16T03:43:20.259Z,90.10
2022-08-16T03:45:52.772Z,90.51
2022-08-16T03:48:36.689Z,90.32
2022-08-16T03:51:09.997Z,90.07
2022-08-16T03:53:41.676Z,89.92
2022-08-16T03:56:19.511Z,89.55
2022-08-16T03:58:50.874Z,88.93
2022-08-16T04:01:20.948Z,88.98
2022-08-16T04:03:50.232Z,89.25
2022-08-16T04:06:18.602Z,88.82
2022-08-16T04:08:48.136Z,87.97
2022-08-16T04:11:17.114Z,87.76
2022-08-16T04:14:01.515Z,87.61
2022-08-16T04:16:34.910Z,86.92
2022-08-16T04:19:04.588Z,86.69
2022-08-16T04:21:34.651Z,86.13
2022-08-16T04:24:07.769Z,85.57
2022-08-16T04:26:36.985Z,85.53
2022-08-16T04:29:16.747Z,85.55
2022-08-16T04:31:56.645Z,85.23
2022-08-16T04:34:29.166Z,84.86
2022-08-16T04:36:58.198Z,85.21
2022-08-16T04:39:44.990Z,84.66
2022-08-16T04:42:16.227Z,84.63
2022-08-16T04:44:53.913Z,84.45
2022-08-16T04:47:33.114Z,84.81
2022-08-16T04:50:02.128Z,85.23
2022-08-16T04:52:35.843Z,84.85
2022-08-16T04:55:07.308Z,84.80
2022-08-16T04:57:36.903Z,84.78
2022-08-16T05:00:32.117Z,84.44
2022-08-16T05:02:58.808Z,84.54
2022-08-16T05:05:30.620Z,84.86
2022-08-16T05:08:29.216Z,85.29
2022-08-16T05:10:51.488Z,84.79
2022-08-16T05:13:19.713Z,84.72
2022-08-16T05:15:49.788Z,84.15
2022-08-16T05:18:26.875Z,83.70
2022-08-16T05:21:09.425Z,83.28
2022-08-16T05:23:37.770Z,83.20
2022-08-16T05:26:06.007Z,83.40
2022-08-16T05:28:47.782Z,83.00
2022-08-16T05:31:24.004Z,82.45
2022-08-16T05:33:59.959Z,82.24
2022-08-16T05:36:33.893Z,82.20
2022-08-16T05:39:04.361Z,81.59
2022-08-16T05:41:32.291Z,81.42
2022-08-16T05:44:05.464Z,80.87
2022-08-16T05:46:49.072Z,80.90
2022-08-16T05:49:22.252Z,80.61
2022-08-16T05:51:51.363Z,80.56
2022-08-16T05:54:25.078Z,80.32
2022-08-16T05:56:54.221Z,79.80
2022-08-16T05:59:24.265Z,79.24
2022-08-16T06:01:55.149Z,78.51
2022-08-16T06:04:35.481Z,77.43
2022-08-16T06:07:09.496Z,77.60
2022-08-16T06:09:52.592Z,76.88
2022-08-16T06:12:27.920Z,76.30
2022-08-16T06:14:59.823Z,75.22
2022-08-16T06:17:41.777Z,74.96
2022-08-16T06:20:18.386Z,73.36
2022-08-16T06:22:58.727Z,73.47
2022-08-16T06:25:36.474Z,72.09
2022-08-16T06:28:09.891Z,70.79
2022-08-16T06:30:43.870Z,69.80
2022-08-16T06:33:22.352Z,69.07
2022-08-16T06:35:54.726Z,67.62
2022-08-16T06:38:32.474Z,68.86
2022-08-16T06:41:03.759Z,68.38
2022-08-16T06:43:31.913Z,67.93
2022-08-16T06:46:00.685Z,67.34
2022-08-16T06:48:33.773Z,65.85
2022-08-16T06:51:04.221Z,64.78
2022-08-16T06:53:35.519Z,64.02
2022-08-16T06:56:14.570Z,63.29
2022-08-16T06:58:52.487Z,62.33
2022-08-16T07:01:43.222Z,61.41
2022-08-16T07:04:11.872Z,55.88
2022-08-16T07:06:43.344Z,51.41
2022-08-16T07:09:12.626Z,48.34
2022-08-16T07:11:47.359Z,45.16
2022-08-16T07:14:24.724Z,44.45
2022-08-16T07:16:55.477Z,43.20
2022-08-16T07:20:01.926Z,39.76
2022-08-16T07:22:37.587Z,38.76
2022-08-16T07:25:03.669Z,39.73
2022-08-16T07:27:37.546Z,38.21
2022-08-16T07:30:45.590Z,36.90
2022-08-16T07:32:56.933Z,37.20
2022-08-16T07:35:25.429Z,36.08
2022-08-16T07:37:54.779Z,34.86
2022-08-16T07:40:49.080Z,34.94
2022-08-16T07:43:11.649Z,33.34
2022-08-16T07:45:39.720Z,33.04
2022-08-16T07:48:12.459Z,32.63
2022-08-16T07:50:55.808Z,32.58
2022-08-16T07:53:29.060Z,31.84
2022-08-16T07:55:58.257Z,32.17
2022-08-16T07:58:34.412Z,30.88
2022-08-16T08:01:10.600Z,30.30
2022-08-16T08:03:47.680Z,29.31
2022-08-16T08:06:17.323Z,29.39
2022-08-16T08:08:51.503Z,28.79
2022-08-16T08:11:24.054Z,30.10
2022-08-16T08:14:03.190Z,29.72
2022-08-16T08:16:32.237Z,29.04
2022-08-16T08:19:02.751Z,28.50
2022-08-16T08:21:59.746Z,27.73
2022-08-16T08:24:22.180Z,27.63
2022-08-16T08:27:00.290Z,27.61
2022-08-16T08:29:37.309Z,27.07
2022-08-16T08:32:58.178Z,26.55
2022-08-16T08:34:56.312Z,26.23
2022-08-16T08:37:54.223Z,26.67
2022-08-16T08:40:24.762Z,27.56
2022-08-16T08:43:00.295Z,28.80
2022-08-16T08:45:53.343Z,29.92
2022-08-16T08:48:33.455Z,29.08
2022-08-16T08:51:04.524Z,29.26
2022-08-16T08:53:33.374Z,29.18
2022-08-16T08:56:23.039Z,28.42
2022-08-16T08:58:53.977Z,27.38
2022-08-16T09:01:31.852Z,27.58
2022-08-16T09:04:05.910Z,28.05
2022-08-16T09:06:35.022Z,27.11
2022-08-16T09:09:03.556Z,26.84
2022-08-16T09:11:41.085Z,26.68
2022-08-16T09:14:23.892Z,26.62
2022-08-16T09:17:01.148Z,25.96
2022-08-16T09:19:33.922Z,26.47
2022-08-16T09:22:02.446Z,25.59
2022-08-16T09:24:46.615Z,26.58
2022-08-16T09:27:20.176Z,27.66
2022-08-16T09:29:48.965Z,28.11
2022-08-16T09:32:30.474Z,27.56
2022-08-16T09:34:59.691Z,27.36
2022-08-16T09:37:29.586Z,27.60
2022-08-16T09:39:59.541Z,27.75
2022-08-16T09:42:30.446Z,27.36
2022-08-16T09:45:18.798Z,27.66
2022-08-16T09:47:56.173Z,28.75
2022-08-16T09:50:33.166Z,28.53
2022-08-16T09:53:15.270Z,31.00
2022-08-16T09:55:49.326Z,32.09
2022-08-16T09:58:41.368Z,32.65
2022-08-16T10:01:11.281Z,34.57
2022-08-16T10:04:02.202Z,34.31
2022-08-16T10:06:40.841Z,33.51
2022-08-16T10:09:16.460Z,33.57
2022-08-16T10:12:11.724Z,33.68
2022-08-16T10:14:51.496Z,34.76
2022-08-16T10:17:22.676Z,33.71
2022-08-16T10:19:56.193Z,34.78
2022-08-16T10:22:24.565Z,34.85
2022-08-16T10:24:59.774Z,34.67
2022-08-16T10:27:30.088Z,34.60
2022-08-16T10:30:24.914Z,34.23
2022-08-16T10:32:54.364Z,33.85
2022-08-16T10:35:22.859Z,34.02
2022-08-16T10:37:52.259Z,33.71
2022-08-16T10:40:29.279Z,34.44
2022-08-16T10:43:00.079Z,35.72
2022-08-16T10:45:36.894Z,36.18
2022-08-16T10:48:27.277Z,35.73
2022-08-16T10:50:58.493Z,36.42
2022-08-16T10:53:33.228Z,36.21
2022-08-16T10:56:02.938Z,36.54
2022-08-16T10:58:34.669Z,37.12
2022-08-16T11:03:57.298Z,36.16
2022-08-16T11:06:28.729Z,36.67
2022-08-16T11:14:36.266Z,38.14
2022-08-16T11:17:11.404Z,38.59
2022-08-16T11:22:42.153Z,37.88
2022-08-16T11:28:08.085Z,39.51
2022-08-16T11:30:38.618Z,40.24
2022-08-16T11:33:09.145Z,41.01
2022-08-16T11:35:43.804Z,42.39
2022-08-16T11:38:47.511Z,43.26
2022-08-16T11:41:03.536Z,44.78
2022-08-16T11:43:35.304Z,43.03
2022-08-16T11:46:43.537Z,43.25
2022-08-16T11:48:55.766Z,43.62
2022-08-16T11:51:23.988Z,42.88
2022-08-16T11:53:52.660Z,43.34
2022-08-16T11:56:40.077Z,43.01
2022-08-16T11:59:09.997Z,44.41
2022-08-16T12:01:55.379Z,45.45
2022-08-16T12:04:29.550Z,45.48
2022-08-16T12:06:58.213Z,47.44
2022-08-16T12:09:29.609Z,49.13
2022-08-16T12:12:03.100Z,50.28
2022-08-16T12:14:35.322Z,51.20
2022-08-16T12:17:08.448Z,51.74
2022-08-16T12:19:38.302Z,50.99
2022-08-16T12:22:19.075Z,50.43
2022-08-16T12:24:51.885Z,50.42
2022-08-16T12:27:23.096Z,49.10
2022-08-16T12:29:52.684Z,48.68
2022-08-16T12:32:37.733Z,47.76
2022-08-16T12:35:13.072Z,45.47
2022-08-16T12:37:42.394Z,45.88
2022-08-16T12:40:24.191Z,45.21
2022-08-16T12:42:58.985Z,44.23
2022-08-16T12:45:29.467Z,43.41
2022-08-16T12:48:33.758Z,43.32
2022-08-16T12:51:13.366Z,41.88
2022-08-16T12:53:46.285Z,42.33
2022-08-16T12:56:15.125Z,41.55
2022-08-16T12:58:50.555Z,41.45
2022-08-16T13:01:22.605Z,41.25
2022-08-16T13:04:11.633Z,42.20
2022-08-16T13:06:43.099Z,42.52
2022-08-16T13:09:23.726Z,42.43
2022-08-16T13:12:03.510Z,42.27
2022-08-16T13:14:34.746Z,42.92
2022-08-16T13:17:06.576Z,43.03
2022-08-16T13:20:05.601Z,43.61
2022-08-16T13:22:26.205Z,43.95
2022-08-16T13:24:54.602Z,43.83
2022-08-16T13:28:10.804Z,44.24
2022-08-16T13:30:36.121Z,43.98
2022-08-16T13:33:01.312Z,44.38
2022-08-16T13:35:42.899Z,44.57
2022-08-16T13:38:24.191Z,44.39
2022-08-16T13:40:56.039Z,44.96
2022-08-16T13:43:26.659Z,45.24
2022-08-16T13:45:55.999Z,44.47
2022-08-16T13:48:25.191Z,44.36
2022-08-16T13:50:54.933Z,44.02
2022-08-16T13:53:26.641Z,44.39
2022-08-16T13:55:57.870Z,43.28
2022-08-16T13:58:37.560Z,42.59
2022-08-16T14:01:17.209Z,42.27
2022-08-16T14:03:46.005Z,41.78
2022-08-16T14:06:15.082Z,41.68
2022-08-16T14:08:59.289Z,41.71
2022-08-16T14:11:34.374Z,41.60
2022-08-16T14:14:05.513Z,40.86
2022-08-16T14:16:35.326Z,40.48
2022-08-16T14:19:06.131Z,39.70
2022-08-16T14:21:35.204Z,39.28
2022-08-16T14:24:12.876Z,39.25
2022-08-16T14:26:54.778Z,39.64
2022-08-16T14:29:28.443Z,39.52
2022-08-16T14:32:00.217Z,39.52
2022-08-16T14:34:29.814Z,40.14
2022-08-16T14:36:58.112Z,40.35
2022-08-16T14:39:29.658Z,39.77
2022-08-16T14:42:05.240Z,39.56
2022-08-16T14:44:33.831Z,38.96
2022-08-16T14:47:01.917Z,39.03
2022-08-16T14:49:33.634Z,38.38
2022-08-16T14:52:02.999Z,37.64
2022-08-16T14:54:33.749Z,37.25
2022-08-16T14:57:01.726Z,37.48
2022-08-16T14:59:32.879Z,36.94
2022-08-16T15:02:12.396Z,36.64
2022-08-16T15:04:55.621Z,36.40
2022-08-16T15:07:23.974Z,36.76
2022-08-16T15:10:01.670Z,36.33
2022-08-16T15:12:33.555Z,35.05
2022-08-16T15:15:04.470Z,34.22
2022-08-16T15:17:42.240Z,35.46
2022-08-16T15:20:26.269Z,35.54
2022-08-16T15:22:55.087Z,35.72
2022-08-16T15:25:29.559Z,35.35
2022-08-16T15:27:58.862Z,35.93
2022-08-16T15:30:57.363Z,35.72
2022-08-16T15:33:19.693Z,36.12
2022-08-16T15:35:50.287Z,36.67
2022-08-16T15:38:56.865Z,36.68
2022-08-16T15:41:07.609Z,36.76
2022-08-16T15:43:40.029Z,37.05
2022-08-16T15:46:35.490Z,37.00
2022-08-16T15:49:13.324Z,37.01
2022-08-16T15:51:44.707Z,37.21
2022-08-16T15:54:29.297Z,37.29
2022-08-16T15:57:10.993Z,37.34
2022-08-16T15:59:49.149Z,37.64
2022-08-16T16:02:29.674Z,37.47
2022-08-16T16:05:01.771Z,37.83
2022-08-16T16:07:31.050Z,38.30
2022-08-16T16:09:59.669Z,37.74
2022-08-16T16:12:54.494Z,37.63
2022-08-16T16:15:22.629Z,37.25
2022-08-16T16:17:52.340Z,37.36
2022-08-16T16:20:27.210Z,37.71
2022-08-16T16:22:59.012Z,37.51
2022-08-16T16:25:29.345Z,37.16
2022-08-16T16:28:00.694Z,37.33
2022-08-16T16:30:33.114Z,37.76
2022-08-16T16:33:15.591Z,37.54
2022-08-16T16:35:56.691Z,38.30
2022-08-16T16:38:29.891Z,37.86
2022-08-16T16:40:58.097Z,37.79
2022-08-16T16:43:32.000Z,36.82
2022-08-16T16:46:02.182Z,36.76
2022-08-16T16:48:34.714Z,36.80
2022-08-16T16:51:09.163Z,36.38
2022-08-16T16:53:39.418Z,36.65
2022-08-16T16:56:08.945Z,36.35
2022-08-16T16:59:01.099Z,36.26
2022-08-16T17:01:57.698Z,35.60
2022-08-16T17:04:31.762Z,35.54
2022-08-16T17:07:02.423Z,35.99
2022-08-16T17:09:31.105Z,35.84
2022-08-16T17:11:59.674Z,35.84
2022-08-16T17:14:33.160Z,39.25
2022-08-16T17:17:02.531Z,40.48
2022-08-16T17:19:31.795Z,41.59
2022-08-16T17:22:00.376Z,42.87
2022-08-16T17:27:33.232Z,44.01
2022-08-16T17:30:15.557Z,45.22
2022-08-16T17:32:50.511Z,45.21
2022-08-16T17:35:34.233Z,45.80
2022-08-16T17:38:06.295Z,46.04
2022-08-16T17:39:26.680Z,43.54
2022-08-16T17:40:46.883Z,46.33
2022-08-16T17:43:27.709Z,46.38
2022-08-16T17:45:58.149Z,46.52
2022-08-16T17:48:27.200Z,46.86
2022-08-16T17:50:56.092Z,47.16
2022-08-16T17:53:24.993Z,47.16
2022-08-16T17:55:54.705Z,47.66
2022-08-16T17:58:24.268Z,47.35
2022-08-16T18:00:54.698Z,47.33
2022-08-16T18:04:08.958Z,47.47
2022-08-16T18:06:18.614Z,47.65
2022-08-16T18:08:48.513Z,47.44
2022-08-16T18:11:25.807Z,47.45
2022-08-16T18:13:54.996Z,48.01
2022-08-16T18:16:23.357Z,47.63
2022-08-16T18:18:52.668Z,47.72
2022-08-16T18:21:37.829Z,48.04
2022-08-16T18:24:06.358Z,48.05
2022-08-16T18:26:34.510Z,47.47
2022-08-16T18:29:02.656Z,47.69
2022-08-16T18:31:30.623Z,47.73
2022-08-16T18:34:01.336Z,48.21
2022-08-16T18:36:29.724Z,48.47
2022-08-16T18:38:57.996Z,48.41
2022-08-16T18:41:29.019Z,48.47
2022-08-16T18:44:26.633Z,48.46
2022-08-16T18:46:50.983Z,49.25
2022-08-16T18:49:21.117Z,49.43
2022-08-16T18:51:50.801Z,49.13
2022-08-16T18:54:19.209Z,49.48
2022-08-16T18:56:56.850Z,49.42
2022-08-16T18:59:28.279Z,49.51
2022-08-16T19:01:59.670Z,50.21
2022-08-16T19:04:56.291Z,50.37
2022-08-16T19:07:18.266Z,50.25
2022-08-16T19:09:46.124Z,50.76
2022-08-16T19:12:15.939Z,50.76
2022-08-16T19:14:44.358Z,51.20
2022-08-16T19:17:12.364Z,51.45
2022-08-16T19:19:41.721Z,51.77
2022-08-16T19:22:09.760Z,51.80
2022-08-16T19:24:37.820Z,51.50
2022-08-16T19:27:10.237Z,51.53
2022-08-16T19:29:38.180Z,52.10
2022-08-16T19:32:16.381Z,51.97
2022-08-16T19:34:45.878Z,52.45
2022-08-16T19:37:14.035Z,52.15
2022-08-16T19:39:42.580Z,52.35
2022-08-16T19:42:13.337Z,52.47
2022-08-16T19:44:42.512Z,52.18
2022-08-16T19:47:11.558Z,52.09
2022-08-16T19:49:39.803Z,52.31
2022-08-16T19:52:14.219Z,52.79
2022-08-16T19:54:42.679Z,53.22
2022-08-16T19:57:11.487Z,53.85
2022-08-16T19:59:40.895Z,53.96
2022-08-16T20:02:25.526Z,54.25
2022-08-16T20:05:05.654Z,54.61
2022-08-16T20:07:34.909Z,54.88
2022-08-16T20:10:02.867Z,54.72
2022-08-16T20:12:30.948Z,55.87
2022-08-16T20:14:59.492Z,55.99
2022-08-16T20:17:27.571Z,56.31
2022-08-16T20:19:56.002Z,56.54
2022-08-16T20:22:51.896Z,56.30
2022-08-16T20:25:20.026Z,56.76
2022-08-16T20:27:56.504Z,56.99
2022-08-16T20:30:25.657Z,57.83
2022-08-16T20:32:54.317Z,58.18
2022-08-16T20:35:25.329Z,58.21
2022-08-16T20:37:53.656Z,58.53
2022-08-16T20:40:35.121Z,58.17
2022-08-16T20:43:07.528Z,58.62
2022-08-16T20:45:36.807Z,59.10
2022-08-16T20:48:05.953Z,58.82
2022-08-16T20:50:35.120Z,59.35
2022-08-16T20:53:03.429Z,58.84
2022-08-16T20:55:35.998Z,59.45
2022-08-16T20:58:04.407Z,59.48
2022-08-16T21:00:33.687Z,59.73
2022-08-16T21:03:03.021Z,60.22
2022-08-16T21:05:31.789Z,60.24
2022-08-16T21:07:59.933Z,60.44
2022-08-16T21:10:28.746Z,60.78
2022-08-16T21:13:03.049Z,60.32
2022-08-16T21:15:33.382Z,60.45
2022-08-16T21:18:03.135Z,60.31
2022-08-16T21:20:31.790Z,59.91
2022-08-16T21:23:02.007Z,60.17
2022-08-16T21:25:30.563Z,59.93
2022-08-16T21:28:41.465Z,59.98
2022-08-16T21:30:49.444Z,60.70
2022-08-16T21:33:19.699Z,60.86
2022-08-16T21:35:49.365Z,60.69
2022-08-16T21:38:29.809Z,60.71
2022-08-16T21:40:58.985Z,60.63
2022-08-16T21:43:31.960Z,60.81
2022-08-16T21:46:01.457Z,60.75
2022-08-16T21:48:33.860Z,60.62
2022-08-16T21:51:03.943Z,61.09
2022-08-16T21:53:32.236Z,61.21
2022-08-16T21:56:01.624Z,61.52
2022-08-16T21:58:32.362Z,61.31
2022-08-16T22:01:01.394Z,61.89
2022-08-16T22:03:30.109Z,61.51
2022-08-16T22:06:13.560Z,62.06
2022-08-16T22:08:50.549Z,61.58
2022-08-16T22:11:20.635Z,62.06
2022-08-16T22:13:57.189Z,62.14
2022-08-16T22:16:27.311Z,61.97
2022-08-16T22:18:55.551Z,62.56
2022-08-16T22:21:23.583Z,62.92
2022-08-16T22:23:56.701Z,62.80
2022-08-16T22:26:30.111Z,62.84
2022-08-16T22:29:00.880Z,63.24
2022-08-16T22:31:28.962Z,63.22
2022-08-16T22:33:58.021Z,63.66
2022-08-16T22:36:29.410Z,63.26
2022-08-16T22:38:59.385Z,63.71
2022-08-16T22:41:31.366Z,64.13
2022-08-16T22:44:02.120Z,64.37
2022-08-16T22:46:30.499Z,64.26
2022-08-16T22:48:58.811Z,64.60
2022-08-16T22:51:28.344Z,64.27
2022-08-16T22:53:57.194Z,64.36
2022-08-16T22:56:26.104Z,64.50
2022-08-16T22:58:54.829Z,64.63
2022-08-16T23:01:26.740Z,65.18
2022-08-16T23:03:55.706Z,65.13
2022-08-16T23:06:24.852Z,65.46
2022-08-16T23:08:52.929Z,65.73
2022-08-16T23:11:23.943Z,65.70
2022-08-16T23:13:54.474Z,66.11
2022-08-16T23:16:33.531Z,66.31
2022-08-16T23:19:03.411Z,66.78
2022-08-16T23:21:32.153Z,66.81
2022-08-16T23:24:00.193Z,67.02
2022-08-16T23:26:44.187Z,67.42
2022-08-16T23:29:23.501Z,67.20
2022-08-16T23:31:59.505Z,67.70
2022-08-16T23:34:29.249Z,67.67
2022-08-16T23:36:57.177Z,67.69
2022-08-16T23:39:25.589Z,67.90
2022-08-16T23:41:53.542Z,67.93
2022-08-16T23:44:57.684Z,68.04
2022-08-16T23:47:10.943Z,68.51
2022-08-16T23:49:55.925Z,68.53
2022-08-16T23:52:53.443Z,69.76
2022-08-16T23:55:16.181Z,69.88
2022-08-16T23:57:45.030Z,69.18
